METAR Data
IDs: Format: Raw Decoded Include TAF

Data at: 1333 UTC 21 Jan 2020

Region: TOP
KATL 211252Z 33010KT 10SM OVC055 M03/M08 A3041 RMK AO2 SLP312 T10281083

KBOS 211254Z 34007KT 10SM FEW040 M07/M17 A3042 RMK AO2 SLP300 T10721172 $

KBWI 211254Z 29005KT 10SM FEW250 M07/M13 A3051 RMK AO2 SLP334 T10671133

KCLE 211251Z 25005KT 10SM OVC029 M05/M11 A3059 RMK AO2 SNE27 SLP371 P0000 T10501106 $

KCLT 211252Z 02011KT 10SM FEW200 SCT250 M04/M11 A3045 RMK AO2 SLP317 T10441111

KCVG 211252Z 04006KT 10SM FEW032 M06/M12 A3061 RMK AO2 SLP376 T10611122

KDCA 211252Z 34010KT 10SM CLR M04/M12 A3054 RMK AO2 SLP342 T10441122

KDEN 211253Z 00000KT 10SM FEW090 OVC110 01/M09 A3003 RMK AO2 SLP167 T00061094

KDFW 211253Z 06004KT 10SM SCT230 BKN300 03/M01 A3044 RMK AO2 SLP309 T00281006 $

KDTW 211253Z 28007KT 10SM OVC028 M07/M12 A3058 RMK AO2 SLP368 T10671117 $

KEWR 211251Z VRB06KT 10SM CLR M06/M12 A3046 RMK AO2 SLP314 T10561122 $

KFLL 211253Z 32007KT 10SM FEW015 FEW250 12/09 A3011 RMK AO2 SLP196 T01170094

KIAD 211252Z 34007KT 10SM CLR M06/M12 A3053 RMK AO2 SLP342 T10611122

KIAH 211253Z 00000KT 10SM BKN250 02/M01 A3050 RMK AO2 SLP330 T00221006

KJFK 211251Z 03004KT 10SM FEW032 FEW250 M06/M11 A3047 RMK AO2 SLP317 FU PLUME DSNT SW DRFTG S T10561111 $

KLAS 211256Z 31006KT 10SM OVC085 12/M02 A3001 RMK AO2 SLP156 T01221022

KLAX 211304Z 00000KT 10SM FEW010 SCT018 BKN045 OVC200 14/11 A3011 RMK AO2 T01440111

KLGA 211251Z 33009KT 10SM CLR M06/M12 A3046 RMK AO2 SLP312 T10561122

KMCO 211253Z 34013KT 10SM FEW050 07/02 A3020 RMK AO2 SLP227 T00720022

KMDW 211253Z 22004KT 10SM FEW025 M08/M11 A3061 RMK AO2 SLP383 T10781111 $

KMEM 211254Z 05009KT 10SM BKN022 M04/M09 A3063 RMK AO2 SLP375 T10391089

KMIA 211253Z 34009G14KT 10SM FEW013 FEW250 13/09 A3012 RMK AO2 SLP200 T01330089

KMSP 211253Z 20005KT 7SM CLR M16/M19 A3045 RMK AO2 SLP334 T11611189

KORD 211251Z 22005KT 10SM CLR M09/M12 A3059 RMK AO2 SLP370 T10941117

KPDX 211253Z 12011KT 9SM -RA OVC049 06/04 A2976 RMK AO2 SLP076 P0005 T00610044 $

KPHL 211254Z 33006KT 10SM CLR M06/M15 A3049 RMK AO2 SLP324 T10611150

KPHX 211251Z 06003KT 10SM -RA OVC075 13/09 A3005 RMK AO2 SLP166 P0006 T01330094

KPIT 211251Z 28004KT 10SM OVC032 M07/M11 A3052 RMK AO2 SNE37 SLP364 P0000 T10721106

KSAN 211251Z 23004KT 2 1/2SM -RA BR BKN005 BKN011 OVC020 14/13 A3012 RMK AO2 SLP200 P0002 T01390128

KSEA 211253Z 17007KT 6SM -RA BR OVC045 08/06 A2965 RMK AO2 SLP046 P0006 T00780056

KSFO 211256Z 12006KT 10SM FEW039 SCT048 BKN120 11/07 A3008 RMK AO2 SLP184 T01110072

KSLC 211254Z 35006KT 9SM FEW070 BKN080 BKN120 M01/M03 A3002 RMK AO2 SLP175 T10111028

KSTL 211251Z 29003KT 8SM OVC008 M07/M09 A3068 RMK AO2 SLP408 T10721094

KTPA 211253Z 01010KT 10SM FEW030 05/M01 A3027 RMK AO2 SLP249 T00501006